Weather reports worldwide

Advertisment
La Hoya, Spain (8205): temperature & dewpoint: 05.12.2019 09:00:00 - 11.12.2019 09:00:00 (CET)La Hoya, Spain (8205): wind speed & gusts: 05.12.2019 09:00:00 - 11.12.2019 09:00:00 (CET)La Hoya, Spain (8205): wind direction: 05.12.2019 09:00:00 - 11.12.2019 09:00:00 (CET)La Hoya, Spain (8205): visibility: 05.12.2019 09:00:00 - 11.12.2019 09:00:00 (CET)La Hoya, Spain (8205): sunshine duration: 05.12.2019 09:00:00 - 11.12.2019 09:00:00 (CET)La Hoya, Spain (8205): precipitation: 05.12.2019 09:00:00 - 11.12.2019 09:00:00 (CET)
Date & Time tt [°C] td [°C] ff [km/h] ff [kn] fx [km/h] fx [kn] dd vv [km] sd [min] rr [mm]
11.12.2019 09:00:00 - - - - - - - - - -
11.12.2019 08:00:00 2,3 2,1 27 15 49 26 WSW 20 0 0,0
11.12.2019 07:00:00 2,2 0,9 23 12 47 25 WSW 20 0 -
11.12.2019 06:00:00 2,2 1,9 25 13 41 22 WSW 20 0 0,0
11.12.2019 05:00:00 2,7 1,9 30 16 42 23 WSW 20 0 0,0
11.12.2019 04:00:00 - - - - - - - - - -
11.12.2019 03:00:00 3,5 -0,5 28 15 39 21 WSW 20 0 0,0
11.12.2019 02:00:00 3,0 -18,0 25 13 39 21 WSW 20 0 0,0
11.12.2019 01:00:00 3,7 -12,8 25 14 38 20 WSW 20 0 -
11.12.2019 00:00:00 3,3 -10,3 21 11 31 17 SW 20 0 0,0
10.12.2019 23:00:00 4,0 -6,4 17 9 29 16 WSW 20 0 0,0
10.12.2019 22:00:00 2,8 -2,5 18 10 23 13 SW 20 0 0,0
10.12.2019 21:00:00 2,9 -6,4 16 9 23 13 WSW 20 0 0,0
10.12.2019 20:00:00 4,3 1,3 15 8 27 15 SW 20 0 0,0
10.12.2019 19:00:00 3,7 -1,0 18 10 22 12 SW 20 0 -
10.12.2019 18:00:00 4,2 -2,7 15 8 22 12 WSW 20 0 0,0
10.12.2019 17:00:00 4,2 -9,0 16 8 20 11 WSW 20 0 0,0
10.12.2019 16:00:00 5,1 -8,2 13 7 16 9 WSW 20 5 0,0
10.12.2019 15:00:00 7,1 -11,7 11 6 15 8 SW 20 17 0,0
10.12.2019 14:00:00 6,4 -5,4 12 6 18 10 W 20 5 0,0
10.12.2019 13:00:00 - - - - - - - - - -
10.12.2019 12:00:00 8,3 -9,4 4 2 8 5 NNE 20 60 0,0
10.12.2019 11:00:00 4,3 -10,3 6 3 10 5 S 20 24 0,0
10.12.2019 10:00:00 3,7 -11,7 6 3 10 5 S 20 13 0,0
10.12.2019 09:00:00 0,1 -11,2 6 3 11 6 SSE 20 0 0,0
10.12.2019 08:00:00 1,6 -13,3 9 5 14 7 SE 20 0 0,0
10.12.2019 07:00:00 1,9 -13,9 10 5 16 9 ESE 20 0 -
10.12.2019 06:00:00 1,4 -12,2 12 7 20 11 ESE 20 0 0,0
10.12.2019 05:00:00 0,5 -13,9 6 3 10 5 S 20 0 0,0
10.12.2019 04:00:00 0,5 -10,8 4 2 15 8 SSE 20 0 0,0
10.12.2019 03:00:00 1,2 -11,2 11 6 14 8 ESE 20 0 0,0
10.12.2019 02:00:00 1,2 -11,7 7 4 13 7 SSE 20 0 0,0
10.12.2019 01:00:00 1,7 -10,8 9 5 16 9 SE 20 0 -
10.12.2019 00:00:00 1,7 -10,3 10 5 18 10 ESE 20 0 0,0
09.12.2019 23:00:00 3,3 -12,8 9 5 17 9 E 20 0 0,0
09.12.2019 22:00:00 3,1 -10,8 6 3 13 7 ENE 20 0 0,0
09.12.2019 21:00:00 3,7 -13,3 6 3 16 8 E 20 0 0,0
09.12.2019 20:00:00 1,9 -11,7 3 2 9 5 E 20 0 0,0
09.12.2019 19:00:00 2,4 -9,4 5 3 11 6 SSW 20 0 -
09.12.2019 18:00:00 3,7 -12,2 7 4 15 8 SE 20 0 0,0
09.12.2019 17:00:00 4,4 -10,8 4 2 16 9 N 20 14 0,0
09.12.2019 16:00:00 5,8 -10,3 6 4 31 17 NNE 20 60 0,0
09.12.2019 15:00:00 6,8 -10,8 12 6 23 12 NNE 20 60 0,0
09.12.2019 14:00:00 6,3 -12,8 12 6 32 17 NE 20 60 0,0
09.12.2019 13:00:00 5,7 -12,2 21 11 32 18 NE 20 60 -
09.12.2019 12:00:00 5,9 -12,2 18 10 29 16 NE 20 60 0,0
09.12.2019 11:00:00 5,3 -15,8 11 6 22 12 E 20 60 0,0
09.12.2019 10:00:00 2,6 -15,8 6 3 16 8 SE 20 6 0,0
09.12.2019 09:00:00 3,9 -19,6 6 4 13 7 S 20 0 0,0
09.12.2019 08:00:00 1,1 -15,1 5 3 13 7 NW 20 0 0,0
09.12.2019 07:00:00 1,2 -14,5 4 2 14 8 N 20 0 -
09.12.2019 06:00:00 2,1 -17,2 10 5 19 10 ENE 20 0 0,0
09.12.2019 05:00:00 1,3 -12,8 4 2 12 6 ESE 20 0 0,0
09.12.2019 04:00:00 2,4 -15,1 7 4 15 8 ESE 20 0 0,0
09.12.2019 03:00:00 1,6 -9,9 4 2 16 9 NE 20 0 0,0
09.12.2019 02:00:00 1,7 -11,2 4 2 13 7 WNW 20 0 0,0
09.12.2019 01:00:00 1,3 -0,7 6 3 14 7 NW 20 0 -
09.12.2019 00:00:00 1,4 1,5 6 3 16 8 ESE 20 0 0,0
08.12.2019 23:00:00 3,5 3,4 3 2 18 10 SSW 0,3 0 0,0
08.12.2019 22:00:00 3,9 3,9 11 6 22 12 WNW 0,9 0 0,2
08.12.2019 21:00:00 4,1 4,1 10 5 21 11 W 0,1 0 0,8
08.12.2019 20:00:00 4,2 4,1 9 5 29 16 WSW 0,1 0 0,8
08.12.2019 19:00:00 4,5 4,3 14 8 25 13 W 0,2 0 -
08.12.2019 18:00:00 4,7 4,6 10 5 29 16 W 0,2 0 0,0
08.12.2019 17:00:00 4,6 4,5 11 6 29 15 W 0,2 0 0,2
08.12.2019 16:00:00 5,1 5,0 12 6 25 14 WNW 0,2 0 3,0
08.12.2019 15:00:00 3,6 3,2 14 8 26 14 W 0,6 0 0,6
08.12.2019 14:00:00 4,4 4,1 19 10 30 16 WSW 0,2 0 0,0
08.12.2019 13:00:00 4,9 4,1 20 11 29 16 WSW 0,9 0 -
08.12.2019 12:00:00 4,7 3,8 19 10 29 16 WSW 20 0 0,0
08.12.2019 11:00:00 3,8 3,6 19 10 25 14 SW 1,3 0 0,0
08.12.2019 10:00:00 3,1 3,0 16 8 21 11 SW 0,6 0 0,0
08.12.2019 09:00:00 2,9 2,5 10 6 20 11 W 20 0 0,0
08.12.2019 08:00:00 2,6 2,1 12 6 24 13 W 20 0 0,0
08.12.2019 07:00:00 1,4 0,6 13 7 19 11 SW 20 0 -
08.12.2019 06:00:00 0,7 -1,0 16 9 22 12 SW 20 0 0,0
08.12.2019 05:00:00 0,7 -2,5 16 8 18 10 SW 20 0 0,0
08.12.2019 04:00:00 1,1 -0,3 16 8 25 14 WSW 20 0 0,0
08.12.2019 03:00:00 2,3 1,1 15 8 23 12 SSW 20 0 0,0
08.12.2019 02:00:00 2,0 0,0 17 9 20 11 SW 20 0 0,0
08.12.2019 01:00:00 3,2 0,4 16 8 21 12 SSW 20 0 -
08.12.2019 00:00:00 2,4 -1,0 15 8 18 10 SSW 20 0 0,0
07.12.2019 23:00:00 1,1 -1,4 10 6 14 8 SW 20 0 0,0
07.12.2019 22:00:00 1,3 -3,6 10 5 15 8 SSW 20 0 0,0
07.12.2019 21:00:00 1,5 -4,2 9 5 13 7 SSW 20 0 0,0
07.12.2019 20:00:00 1,4 -5,1 8 5 11 6 WSW 20 0 0,0
07.12.2019 19:00:00 1,5 -4,8 6 3 9 5 S 20 0 -
07.12.2019 18:00:00 1,4 -6,4 5 3 10 5 S 20 0 0,0
07.12.2019 17:00:00 4,3 -5,1 5 3 9 5 SSE 20 56 0,0
07.12.2019 16:00:00 6,0 -1,2 4 2 8 4 S 20 60 0,0
07.12.2019 15:00:00 8,4 1,1 3 2 8 5 E 20 60 0,0
07.12.2019 14:00:00 9,6 -0,7 2 1 14 8 S 20 60 0,0
07.12.2019 13:00:00 7,0 -3,9 9 5 16 8 E 20 60 -
07.12.2019 12:00:00 6,4 -6,0 11 6 20 11 ESE 20 60 0,0
07.12.2019 11:00:00 4,8 -6,7 13 7 17 9 ESE 20 60 0,0
07.12.2019 10:00:00 4,4 -7,8 11 6 17 9 E 20 16 0,0
07.12.2019 09:00:00 2,3 -5,7 9 5 16 8 ESE 20 0 0,0
07.12.2019 08:00:00 1,9 -4,8 7 4 13 7 ESE 20 0 0,0
07.12.2019 07:00:00 1,7 -5,1 8 4 14 8 ESE 20 0 -
07.12.2019 06:00:00 1,5 -4,8 10 5 14 8 SE 20 0 0,0
07.12.2019 05:00:00 1,6 -4,2 6 3 13 7 ESE 20 0 0,0
07.12.2019 04:00:00 1,6 -5,1 3 1 14 8 SSW 20 0 0,0
07.12.2019 03:00:00 2,5 -5,4 8 4 12 7 SSE 20 0 0,0
07.12.2019 02:00:00 1,2 -5,4 5 3 16 9 E 20 0 0,0
07.12.2019 01:00:00 2,2 -6,0 13 7 21 11 ESE 20 0 -
07.12.2019 00:00:00 3,7 -5,7 16 8 25 13 ESE 20 0 0,0
06.12.2019 23:00:00 2,1 -3,3 22 12 26 14 SE 20 0 0,0
06.12.2019 22:00:00 0,9 -2,7 9 5 19 10 ESE 20 0 0,0
06.12.2019 21:00:00 2,5 -3,3 14 8 27 15 E 20 0 0,0
06.12.2019 20:00:00 1,9 -2,7 18 10 24 13 E 20 0 0,0
06.12.2019 19:00:00 1,8 -1,0 16 8 18 10 E 20 0 -
06.12.2019 18:00:00 1,9 -1,4 13 7 22 12 E 20 0 0,0
06.12.2019 17:00:00 2,5 -2,0 16 8 21 11 E 20 56 0,0
06.12.2019 16:00:00 3,7 -0,7 13 7 27 14 E 20 60 0,0
06.12.2019 15:00:00 3,8 -1,4 16 9 26 14 E 20 60 0,0
06.12.2019 14:00:00 3,7 -0,7 14 8 26 14 E 20 60 0,0
06.12.2019 13:00:00 3,8 -1,4 16 8 22 12 E 20 60 -
06.12.2019 12:00:00 4,0 -1,0 10 6 24 13 E 20 60 0,0
06.12.2019 11:00:00 3,7 -2,5 19 10 27 15 ESE 20 60 0,0
06.12.2019 10:00:00 1,7 -1,4 16 9 23 13 E 20 17 0,0
06.12.2019 09:00:00 0,8 -1,7 20 11 23 13 ESE 20 0 0,0
06.12.2019 08:00:00 0,1 -1,7 13 7 21 11 E 20 0 0,0
06.12.2019 07:00:00 0,1 -1,2 10 5 25 14 ENE 20 0 -
06.12.2019 06:00:00 0,7 -1,0 18 10 28 15 E 20 0 0,0
06.12.2019 05:00:00 - - - - - - - - - -
06.12.2019 04:00:00 0,6 -1,2 16 9 21 12 ESE 20 0 0,0
06.12.2019 03:00:00 -0,1 -1,2 11 6 19 11 ESE 20 0 0,0
06.12.2019 02:00:00 0,3 -0,5 9 5 29 16 SE 20 0 0,0
06.12.2019 01:00:00 0,3 -0,5 25 14 44 24 SSE 20 0 -
06.12.2019 00:00:00 -0,1 - 34 18 48 26 SE 20 0 0,0
05.12.2019 23:00:00 -0,1 - 35 19 47 26 E 0,5 0 0,0
05.12.2019 22:00:00 -0,2 - 34 18 46 25 E 0,2 0 0,0
05.12.2019 21:00:00 -0,1 - 37 20 45 24 E 0,1 0 0,0
05.12.2019 20:00:00 -0,4 - 31 17 45 24 E 0,9 0 0,0
05.12.2019 19:00:00 -0,2 -0,3 36 19 46 25 E 0,3 0 -
05.12.2019 18:00:00 0,2 0,2 34 19 51 28 E 0,1 0 0,0
05.12.2019 17:00:00 0,3 0,0 37 20 51 28 E 20 18 0,0
05.12.2019 16:00:00 0,4 0,2 27 14 50 27 E 0,3 33 0,2
05.12.2019 15:00:00 0,8 0,2 33 18 55 30 E 20 23 0,0
05.12.2019 14:00:00 0,2 0,2 35 19 46 25 E 2,9 0 0,4
05.12.2019 13:00:00 0,3 0,2 32 17 42 23 E 1,0 3 -
05.12.2019 12:00:00 0,1 0,0 32 17 48 26 ESE 11 4 0,0
05.12.2019 11:00:00 -0,2 -0,3 31 17 45 24 ESE 1,8 1 0,0
05.12.2019 10:00:00 -0,2 -0,3 34 18 45 25 E 1,1 0 0,0
05.12.2019 09:00:00 -0,2 -1,2 32 17 54 29 ESE 20 0 0,0

tt = temperature
td = dewpoint
ff = wind speed
fx = gusts
dd = wind direction
vv = visibility
sd = sunshine duration
rr = precipitation

Next stations